Time;durP1;ratioP1;P1;durP2;ratioP2;P2;SDS_P1;SDS_P2;PMS_P1;PMS_P2;Temp;Humidity;BMP_temperature;BMP_pressure;BME280_temperature;BME280_humidity;BME280_pressure;Samples;Min_cycle;Max_cycle;Signal;HPM_P1;HPM_P2
2022/03/24 00:00:02;;;;;;;11.57;10.47;;;;;;;;;;5082967;28;20201;-70
2022/03/24 00:02:31;;;;;;;12.77;10.70;;;;;;;;;;5068278;28;20201;-69
2022/03/24 00:05:02;;;;;;;12.67;11.47;;;;;;;;;;5062735;28;20225;-69
2022/03/24 00:07:35;;;;;;;12.80;11.60;;;;;;;;;;5058532;28;20223;-70
2022/03/24 00:10:03;;;;;;;11.87;10.77;;;;;;;;;;5055417;28;20221;-69
2022/03/24 00:12:35;;;;;;;14.17;11.10;;;;;;;;;;5071425;28;20192;-70
2022/03/24 00:15:08;;;;;;;12.20;10.97;;;;;;;;;;5059237;28;20205;-70
2022/03/24 00:17:37;;;;;;;12.77;11.50;;;;;;;;;;5051936;28;20738;-70
2022/03/24 00:20:11;;;;;;;15.10;12.47;;;;;;;;;;5069585;28;20298;-69
2022/03/24 00:22:45;;;;;;;12.93;11.60;;;;;;;;;;5060434;28;20225;-70
2022/03/24 00:25:17;;;;;;;12.23;11.07;;;;;;;;;;5041999;28;20225;-69
2022/03/24 00:27:46;;;;;;;13.47;12.07;;;;;;;;;;5067684;28;20209;-70
2022/03/24 00:30:15;;;;;;;13.17;11.47;;;;;;;;;;5067629;28;20225;-69
2022/03/24 00:32:45;;;;;;;11.93;10.80;;;;;;;;;;5059947;28;20189;-69
2022/03/24 00:35:15;;;;;;;13.27;11.97;;;;;;;;;;5050109;28;20647;-69
2022/03/24 00:37:44;;;;;;;12.80;11.60;;;;;;;;;;5061772;28;20205;-69
2022/03/24 00:40:16;;;;;;;12.30;11.07;;;;;;;;;;5060913;28;20204;-70
2022/03/24 00:42:46;;;;;;;12.73;11.53;;;;;;;;;;5065178;28;20217;-69
2022/03/24 00:45:15;;;;;;;13.40;12.10;;;;;;;;;;5048250;28;20669;-70
2022/03/24 00:47:46;;;;;;;13.30;12.00;;;;;;;;;;5066742;28;20208;-70
2022/03/24 00:50:17;;;;;;;12.33;11.03;;;;;;;;;;5067424;28;20229;-68
2022/03/24 00:52:48;;;;;;;12.80;11.60;;;;;;;;;;5047000;28;20202;-69
2022/03/24 00:55:21;;;;;;;12.93;11.57;;;;;;;;;;5072800;28;20201;-69
2022/03/24 00:57:53;;;;;;;13.00;11.80;;;;;;;;;;5065276;28;20228;-69
2022/03/24 01:00:30;;;;;;;12.90;11.70;;;;;;;;;;5067730;28;20198;-70
2022/03/24 01:02:59;;;;;;;12.03;10.93;;;;;;;;;;5046454;28;20474;-69
2022/03/24 01:05:31;;;;;;;11.67;10.47;;;;;;;;;;5080598;28;20704;-69
2022/03/24 01:08:00;;;;;;;12.40;11.30;;;;;;;;;;5066599;28;20672;-69
2022/03/24 01:10:43;;;;;;;11.97;10.87;;;;;;;;;;5055622;28;20237;-69
2022/03/24 01:13:21;;;;;;;12.33;11.10;;;;;;;;;;5067816;28;20199;-70
2022/03/24 01:15:52;;;;;;;12.07;10.90;;;;;;;;;;5066626;28;20190;-69
2022/03/24 01:18:23;;;;;;;11.90;10.80;;;;;;;;;;5049010;28;20268;-69
2022/03/24 01:21:00;;;;;;;12.40;11.17;;;;;;;;;;5050577;28;20206;-70
2022/03/24 01:23:39;;;;;;;12.10;11.00;;;;;;;;;;5056465;28;20190;-69
2022/03/24 01:26:11;;;;;;;11.97;10.80;;;;;;;;;;5065809;28;20185;-69
2022/03/24 01:28:41;;;;;;;12.37;11.13;;;;;;;;;;5065557;28;20205;-69
2022/03/24 01:31:11;;;;;;;11.50;10.40;;;;;;;;;;5059923;28;20222;-69
2022/03/24 01:33:42;;;;;;;12.07;10.90;;;;;;;;;;5063852;28;20209;-69
2022/03/24 01:36:13;;;;;;;12.27;11.17;;;;;;;;;;5066041;28;20542;-69
2022/03/24 01:38:47;;;;;;;11.90;10.80;;;;;;;;;;5073393;28;20213;-69
2022/03/24 01:41:22;;;;;;;11.83;10.70;;;;;;;;;;5067049;28;20208;-69
2022/03/24 01:43:54;;;;;;;12.03;10.87;;;;;;;;;;5066189;28;20280;-69
2022/03/24 01:46:24;;;;;;;12.13;11.03;;;;;;;;;;5063586;28;20696;-69
2022/03/24 01:48:55;;;;;;;12.13;11.03;;;;;;;;;;5076138;28;20190;-69
2022/03/24 01:51:26;;;;;;;12.23;11.03;;;;;;;;;;5066072;28;20695;-69
2022/03/24 01:53:59;;;;;;;12.50;11.30;;;;;;;;;;5060330;28;20899;-69
2022/03/24 01:56:30;;;;;;;12.77;11.47;;;;;;;;;;5055794;28;20600;-70
2022/03/24 01:59:00;;;;;;;11.40;10.30;;;;;;;;;;5065274;28;20209;-69
2022/03/24 02:01:35;;;;;;;12.20;11.00;;;;;;;;;;5051767;28;20233;-69
2022/03/24 02:04:06;;;;;;;11.47;10.43;;;;;;;;;;5064840;28;20680;-69
2022/03/24 02:06:40;;;;;;;12.10;10.80;;;;;;;;;;5047473;28;20432;-69
2022/03/24 02:09:16;;;;;;;12.37;10.57;;;;;;;;;;5064050;28;20209;-69
2022/03/24 02:11:45;;;;;;;11.70;10.57;;;;;;;;;;5067063;28;20233;-69
2022/03/24 02:14:20;;;;;;;11.90;10.70;;;;;;;;;;5067178;28;20776;-69
2022/03/24 02:16:53;;;;;;;11.97;10.87;;;;;;;;;;5064208;28;20194;-69
2022/03/24 02:19:30;;;;;;;12.23;11.00;;;;;;;;;;5066624;28;20193;-69
2022/03/24 02:22:16;;;;;;;11.37;10.27;;;;;;;;;;5061491;28;20217;-69
2022/03/24 02:24:46;;;;;;;11.97;10.87;;;;;;;;;;5058128;28;20637;-69
2022/03/24 02:27:33;;;;;;;12.37;11.07;;;;;;;;;;5065396;28;20216;-69
2022/03/24 02:30:04;;;;;;;12.20;10.97;;;;;;;;;;5074951;28;20667;-69
2022/03/24 02:32:36;;;;;;;12.07;10.87;;;;;;;;;;5075409;28;20212;-69
2022/03/24 02:35:06;;;;;;;11.43;10.33;;;;;;;;;;5065310;28;20218;-69
2022/03/24 02:37:35;;;;;;;12.53;11.33;;;;;;;;;;5064740;28;20643;-69
2022/03/24 02:40:07;;;;;;;11.80;10.70;;;;;;;;;;5077100;28;20204;-69
2022/03/24 02:42:38;;;;;;;12.07;10.97;;;;;;;;;;5068355;28;20198;-70
2022/03/24 02:45:08;;;;;;;11.73;10.60;;;;;;;;;;5067203;28;20224;-69
2022/03/24 02:47:40;;;;;;;11.77;10.57;;;;;;;;;;5041972;28;20194;-69
2022/03/24 02:50:11;;;;;;;11.37;10.27;;;;;;;;;;5063528;28;20233;-69
2022/03/24 02:52:43;;;;;;;11.70;10.47;;;;;;;;;;5068992;28;20467;-69
2022/03/24 02:55:12;;;;;;;12.13;10.97;;;;;;;;;;5068451;28;20513;-70
2022/03/24 02:57:44;;;;;;;11.77;10.57;;;;;;;;;;5082328;28;20210;-69
2022/03/24 03:00:16;;;;;;;12.40;11.20;;;;;;;;;;5071168;28;20202;-69
2022/03/24 03:02:47;;;;;;;12.70;11.50;;;;;;;;;;5072817;28;20217;-69
2022/03/24 03:05:19;;;;;;;12.00;10.63;;;;;;;;;;5054221;28;20200;-69
2022/03/24 03:07:52;;;;;;;12.13;10.97;;;;;;;;;;5084616;28;20197;-69
2022/03/24 03:10:20;;;;;;;12.10;11.00;;;;;;;;;;5076931;28;20236;-69
2022/03/24 03:12:49;;;;;;;11.60;10.50;;;;;;;;;;5067732;28;20188;-69
2022/03/24 03:15:18;;;;;;;11.53;10.40;;;;;;;;;;5069560;28;20205;-69
2022/03/24 03:17:47;;;;;;;12.07;10.97;;;;;;;;;;5070554;28;20197;-69
2022/03/24 03:20:18;;;;;;;12.17;11.07;;;;;;;;;;5069155;28;20216;-71
2022/03/24 03:22:49;;;;;;;12.30;11.10;;;;;;;;;;5051512;28;20222;-71
2022/03/24 03:25:21;;;;;;;11.80;10.67;;;;;;;;;;5069853;28;20254;-70
2022/03/24 03:27:54;;;;;;;12.60;11.30;;;;;;;;;;5070548;28;20534;-70
2022/03/24 03:30:24;;;;;;;12.77;11.43;;;;;;;;;;5067237;28;20214;-70
2022/03/24 03:32:54;;;;;;;12.53;11.23;;;;;;;;;;5045670;28;20212;-70
2022/03/24 03:35:29;;;;;;;12.47;11.20;;;;;;;;;;5072136;28;20193;-70
2022/03/24 03:37:59;;;;;;;13.10;11.80;;;;;;;;;;5073187;28;20242;-70
2022/03/24 03:40:31;;;;;;;12.63;11.43;;;;;;;;;;5069385;28;20603;-70
2022/03/24 03:43:03;;;;;;;12.00;10.90;;;;;;;;;;5080124;28;20212;-70
2022/03/24 03:45:33;;;;;;;12.03;10.93;;;;;;;;;;5065949;28;20218;-71
2022/03/24 03:48:03;;;;;;;12.47;11.17;;;;;;;;;;5068286;28;20194;-70
2022/03/24 03:50:37;;;;;;;12.30;11.17;;;;;;;;;;5067937;28;20229;-70
2022/03/24 03:53:04;;;;;;;12.50;11.30;;;;;;;;;;5069135;28;20243;-70
2022/03/24 03:55:32;;;;;;;12.47;11.27;;;;;;;;;;5055127;28;20200;-70
2022/03/24 03:58:01;;;;;;;12.83;11.13;;;;;;;;;;5066349;28;20651;-70
2022/03/24 04:03:21;;;;;;;12.97;11.63;;;;;;;;;;5058007;28;20209;-71
2022/03/24 04:05:58;;;;;;;13.20;11.90;;;;;;;;;;5067929;28;20193;-71
2022/03/24 04:08:29;;;;;;;12.70;11.50;;;;;;;;;;5067119;28;20205;-70
2022/03/24 04:11:07;;;;;;;11.63;10.53;;;;;;;;;;5077176;28;20408;-70
2022/03/24 04:13:50;;;;;;;12.07;10.97;;;;;;;;;;5067725;28;20219;-70
2022/03/24 04:16:24;;;;;;;12.60;10.53;;;;;;;;;;5062297;28;20281;-71
2022/03/24 04:18:57;;;;;;;12.93;11.73;;;;;;;;;;5093436;28;20659;-70
2022/03/24 04:21:29;;;;;;;12.60;11.30;;;;;;;;;;5073237;28;20205;-70
2022/03/24 04:23:59;;;;;;;12.80;11.60;;;;;;;;;;5077601;28;20529;-70
2022/03/24 04:26:30;;;;;;;11.60;10.50;;;;;;;;;;5057037;28;20197;-69
2022/03/24 04:29:02;;;;;;;13.03;11.30;;;;;;;;;;5064239;28;20281;-70
2022/03/24 04:31:36;;;;;;;13.03;11.77;;;;;;;;;;5063401;28;20219;-70
2022/03/24 04:34:05;;;;;;;12.67;11.47;;;;;;;;;;5079686;28;20214;-70
2022/03/24 04:36:35;;;;;;;12.73;11.50;;;;;;;;;;5071425;28;20525;-70
2022/03/24 04:39:05;;;;;;;12.90;11.60;;;;;;;;;;5070327;28;20225;-70
2022/03/24 04:41:38;;;;;;;12.20;11.00;;;;;;;;;;5071754;28;20194;-70
2022/03/24 04:44:10;;;;;;;11.67;10.57;;;;;;;;;;5070515;28;20198;-69
2022/03/24 04:46:39;;;;;;;11.93;10.73;;;;;;;;;;5079201;28;20217;-69
2022/03/24 04:49:09;;;;;;;12.00;10.90;;;;;;;;;;5083154;28;20193;-70
2022/03/24 04:51:40;;;;;;;11.97;10.87;;;;;;;;;;5060807;28;20302;-70
2022/03/24 04:54:10;;;;;;;15.00;11.53;;;;;;;;;;5080426;28;20212;-71
2022/03/24 04:56:40;;;;;;;12.10;10.90;;;;;;;;;;5072295;28;20196;-69
2022/03/24 04:59:09;;;;;;;11.97;10.87;;;;;;;;;;5088990;28;20663;-70
2022/03/24 05:01:42;;;;;;;12.47;11.17;;;;;;;;;;5076615;28;20633;-69
2022/03/24 05:04:12;;;;;;;12.70;11.50;;;;;;;;;;5075075;28;20533;-70
2022/03/24 05:07:03;;;;;;;11.73;10.53;;;;;;;;;;5071249;28;20193;-70
2022/03/24 05:09:33;;;;;;;12.20;11.00;;;;;;;;;;5068645;28;20221;-70
2022/03/24 05:12:02;;;;;;;12.60;11.27;;;;;;;;;;5049901;28;20214;-69
2022/03/24 05:14:33;;;;;;;13.10;11.80;;;;;;;;;;5070901;28;20193;-70
2022/03/24 05:17:07;;;;;;;12.60;11.40;;;;;;;;;;5048155;28;20189;-70
2022/03/24 05:19:36;;;;;;;12.67;11.37;;;;;;;;;;5067681;28;20266;-70
2022/03/24 05:22:09;;;;;;;11.87;10.77;;;;;;;;;;5082463;28;20202;-70
2022/03/24 05:24:41;;;;;;;11.23;10.23;;;;;;;;;;5065661;28;20204;-70
2022/03/24 05:27:30;;;;;;;12.07;10.77;;;;;;;;;;5076156;28;20280;-67
2022/03/24 05:29:58;;;;;;;11.70;10.60;;;;;;;;;;5055856;28;20208;-68
2022/03/24 05:32:30;;;;;;;12.00;10.50;;;;;;;;;;5056957;28;20217;-68
2022/03/24 05:35:04;;;;;;;11.93;10.73;;;;;;;;;;5046510;28;20548;-68
2022/03/24 05:37:32;;;;;;;12.80;11.57;;;;;;;;;;5074895;28;20198;-67
2022/03/24 05:40:05;;;;;;;12.80;11.60;;;;;;;;;;5049990;28;20533;-67
2022/03/24 05:42:36;;;;;;;11.90;10.77;;;;;;;;;;5069169;28;20194;-67
2022/03/24 05:45:06;;;;;;;11.97;10.77;;;;;;;;;;5075661;28;20209;-68
2022/03/24 05:47:38;;;;;;;11.50;10.33;;;;;;;;;;5067440;28;20189;-67
2022/03/24 05:50:09;;;;;;;11.77;10.67;;;;;;;;;;5079848;28;20263;-67
2022/03/24 05:52:36;;;;;;;12.70;11.50;;;;;;;;;;5065986;28;20209;-66
2022/03/24 05:55:05;;;;;;;12.00;10.90;;;;;;;;;;5067209;28;20201;-67
2022/03/24 05:57:36;;;;;;;12.87;11.67;;;;;;;;;;5063928;28;20293;-68
2022/03/24 06:00:07;;;;;;;12.60;11.40;;;;;;;;;;5056849;28;20199;-68
2022/03/24 06:02:35;;;;;;;12.73;11.63;;;;;;;;;;5070164;28;20587;-67
2022/03/24 06:05:09;;;;;;;13.10;11.70;;;;;;;;;;5047388;28;20572;-66
2022/03/24 06:07:41;;;;;;;12.43;11.23;;;;;;;;;;5066545;28;20245;-68
2022/03/24 06:10:13;;;;;;;13.00;11.70;;;;;;;;;;5064833;28;20213;-68
2022/03/24 06:12:47;;;;;;;13.27;12.07;;;;;;;;;;5029787;28;20221;-69
2022/03/24 06:15:20;;;;;;;13.47;12.07;;;;;;;;;;5066580;28;20204;-68
2022/03/24 06:17:51;;;;;;;13.20;12.00;;;;;;;;;;5067008;28;20709;-67
2022/03/24 06:20:26;;;;;;;13.77;12.47;;;;;;;;;;5057893;28;20205;-69
2022/03/24 06:22:55;;;;;;;14.10;12.67;;;;;;;;;;5060953;28;20918;-66
2022/03/24 06:25:27;;;;;;;14.10;12.60;;;;;;;;;;5067188;28;20202;-66
2022/03/24 06:28:01;;;;;;;14.97;12.50;;;;;;;;;;5066253;28;20197;-66
2022/03/24 06:30:32;;;;;;;15.60;13.40;;;;;;;;;;5065759;28;20578;-67
2022/03/24 06:33:04;;;;;;;16.73;12.03;;;;;;;;;;5045006;28;20324;-66
2022/03/24 06:35:33;;;;;;;16.07;13.10;;;;;;;;;;5068895;28;20222;-68
2022/03/24 06:38:01;;;;;;;17.27;13.00;;;;;;;;;;5051926;28;20202;-68
2022/03/24 06:40:32;;;;;;;18.93;13.50;;;;;;;;;;5070263;28;20643;-67
2022/03/24 06:43:03;;;;;;;16.37;14.03;;;;;;;;;;5068348;28;20645;-66
2022/03/24 06:45:37;;;;;;;17.93;14.03;;;;;;;;;;5043463;28;20213;-67
2022/03/24 06:48:09;;;;;;;17.20;14.23;;;;;;;;;;5052681;28;20581;-67
2022/03/24 06:50:41;;;;;;;18.57;14.90;;;;;;;;;;5067602;28;20237;-67
2022/03/24 06:53:11;;;;;;;18.47;13.97;;;;;;;;;;5046945;28;20202;-67
2022/03/24 06:55:41;;;;;;;18.83;14.93;;;;;;;;;;5063135;28;20198;-68
2022/03/24 06:58:14;;;;;;;17.60;14.33;;;;;;;;;;5064946;28;20677;-67
2022/03/24 07:00:46;;;;;;;19.13;15.40;;;;;;;;;;5064673;28;20200;-68
2022/03/24 07:03:17;;;;;;;18.10;14.57;;;;;;;;;;5064766;28;20271;-67
2022/03/24 07:05:46;;;;;;;17.47;14.63;;;;;;;;;;5055556;28;20201;-68
2022/03/24 07:08:16;;;;;;;17.33;14.60;;;;;;;;;;5074761;28;20296;-67
2022/03/24 07:10:49;;;;;;;16.70;14.90;;;;;;;;;;5062907;28;20202;-67
2022/03/24 07:13:24;;;;;;;17.57;15.70;;;;;;;;;;5064038;28;20575;-67
2022/03/24 07:15:57;;;;;;;16.93;15.00;;;;;;;;;;5063988;28;20717;-66
2022/03/24 07:18:27;;;;;;;98.83;31.17;;;;;;;;;;5068365;28;20205;-69
2022/03/24 07:20:58;;;;;;;235.77;54.97;;;;;;;;;;5060856;28;20689;-66
2022/03/24 07:23:28;;;;;;;183.10;48.13;;;;;;;;;;5067998;28;20189;-66
2022/03/24 07:26:05;;;;;;;164.98;47.00;;;;;;;;;;5068362;28;20408;-63
2022/03/24 07:28:37;;;;;;;146.93;45.87;;;;;;;;;;5069854;28;20424;-64
2022/03/24 07:31:14;;;;;;;120.97;38.57;;;;;;;;;;5070025;28;20189;-64
2022/03/24 07:33:47;;;;;;;124.77;34.53;;;;;;;;;;5049784;28;20565;-66
2022/03/24 07:36:22;;;;;;;96.00;31.57;;;;;;;;;;5064190;28;20221;-64
2022/03/24 07:38:59;;;;;;;75.10;29.37;;;;;;;;;;5053813;28;20713;-65
2022/03/24 07:41:32;;;;;;;72.17;27.63;;;;;;;;;;5052632;28;20217;-62
2022/03/24 07:44:01;;;;;;;60.93;26.43;;;;;;;;;;5066944;28;20205;-65
2022/03/24 07:46:33;;;;;;;53.70;25.23;;;;;;;;;;5061767;28;20322;-63
2022/03/24 07:49:04;;;;;;;53.97;24.13;;;;;;;;;;5051291;28;20194;-63
2022/03/24 07:51:37;;;;;;;42.73;21.37;;;;;;;;;;5068263;28;20238;-64
2022/03/24 07:54:13;;;;;;;51.43;22.93;;;;;;;;;;5068334;28;20186;-64
2022/03/24 07:56:43;;;;;;;44.37;21.83;;;;;;;;;;5067508;28;20204;-62
2022/03/24 07:59:13;;;;;;;39.60;20.33;;;;;;;;;;5067901;28;20200;-63
2022/03/24 08:01:43;;;;;;;33.30;19.13;;;;;;;;;;5068289;28;20193;-66
2022/03/24 08:04:16;;;;;;;32.27;18.30;;;;;;;;;;5065243;28;20225;-63
2022/03/24 08:06:46;;;;;;;28.53;18.60;;;;;;;;;;5050335;28;20217;-63
2022/03/24 08:09:18;;;;;;;31.60;17.90;;;;;;;;;;5065754;28;20214;-63
2022/03/24 08:11:56;;;;;;;28.97;17.10;;;;;;;;;;5069025;28;20221;-64
2022/03/24 08:14:25;;;;;;;24.53;16.03;;;;;;;;;;5066761;28;20198;-63
2022/03/24 08:16:56;;;;;;;25.27;16.23;;;;;;;;;;5061808;28;20186;-62
2022/03/24 08:19:29;;;;;;;24.20;15.50;;;;;;;;;;5044095;28;20198;-66
2022/03/24 08:22:00;;;;;;;23.33;14.93;;;;;;;;;;5066857;28;20218;-63
2022/03/24 08:24:32;;;;;;;18.83;14.80;;;;;;;;;;5065944;28;20213;-63
2022/03/24 08:27:03;;;;;;;23.17;15.37;;;;;;;;;;5058534;28;20288;-62
2022/03/24 08:29:33;;;;;;;29.53;14.70;;;;;;;;;;5087794;28;20256;-67
2022/03/24 08:32:05;;;;;;;18.73;13.83;;;;;;;;;;5075838;28;20274;-65
2022/03/24 08:34:38;;;;;;;20.13;13.67;;;;;;;;;;5062036;28;20561;-66
2022/03/24 08:37:10;;;;;;;18.17;13.80;;;;;;;;;;5083547;28;20209;-66
2022/03/24 08:39:41;;;;;;;16.57;13.10;;;;;;;;;;5071283;28;20200;-66
2022/03/24 08:42:13;;;;;;;19.70;14.30;;;;;;;;;;5072848;28;20627;-65
2022/03/24 08:44:43;;;;;;;19.33;13.37;;;;;;;;;;5075563;28;20206;-64
2022/03/24 08:47:15;;;;;;;15.53;12.37;;;;;;;;;;5073820;28;20682;-65
2022/03/24 08:49:52;;;;;;;17.87;12.90;;;;;;;;;;5068598;28;20237;-64
2022/03/24 08:52:21;;;;;;;14.63;12.33;;;;;;;;;;5069921;28;20197;-64
2022/03/24 08:54:57;;;;;;;18.67;12.50;;;;;;;;;;5082060;28;20196;-65
2022/03/24 08:57:28;;;;;;;13.63;12.27;;;;;;;;;;5090846;28;20212;-65
2022/03/24 09:00:12;;;;;;;13.83;12.13;;;;;;;;;;5077603;28;20194;-65
2022/03/24 09:02:55;;;;;;;16.27;11.93;;;;;;;;;;5053900;28;20267;-68
2022/03/24 09:05:26;;;;;;;13.40;11.67;;;;;;;;;;5056877;28;20217;-68
2022/03/24 09:07:56;;;;;;;14.50;11.73;;;;;;;;;;5082618;28;20200;-66
2022/03/24 09:10:27;;;;;;;14.53;12.13;;;;;;;;;;5066378;28;20217;-67
2022/03/24 09:12:58;;;;;;;12.07;10.80;;;;;;;;;;5049965;28;20218;-68
2022/03/24 09:15:29;;;;;;;11.93;10.53;;;;;;;;;;5053369;28;20248;-65
2022/03/24 09:18:00;;;;;;;11.47;10.27;;;;;;;;;;5077840;28;20245;-66
2022/03/24 09:20:31;;;;;;;15.17;10.97;;;;;;;;;;5074717;28;20213;-67
2022/03/24 09:23:04;;;;;;;12.67;11.40;;;;;;;;;;5069233;28;20698;-67
2022/03/24 09:25:38;;;;;;;11.33;10.23;;;;;;;;;;5071587;28;20276;-66
2022/03/24 09:28:10;;;;;;;11.63;10.40;;;;;;;;;;5071149;28;20212;-66
2022/03/24 09:30:40;;;;;;;11.00;9.90;;;;;;;;;;5083802;28;20200;-67
2022/03/24 09:33:32;;;;;;;11.83;9.87;;;;;;;;;;5030084;28;20242;-66
2022/03/24 09:36:03;;;;;;;12.07;10.03;;;;;;;;;;5067770;28;20515;-65
2022/03/24 09:38:34;;;;;;;11.30;10.20;;;;;;;;;;5084319;28;20209;-67
2022/03/24 09:41:04;;;;;;;10.60;9.47;;;;;;;;;;5064966;28;20197;-67
2022/03/24 09:43:36;;;;;;;11.70;10.20;;;;;;;;;;5081604;28;20194;-66
2022/03/24 09:46:09;;;;;;;11.20;10.00;;;;;;;;;;5065956;28;20716;-66
2022/03/24 09:48:44;;;;;;;10.27;9.20;;;;;;;;;;5048998;28;20239;-65
2022/03/24 09:51:15;;;;;;;10.93;9.83;;;;;;;;;;5067320;28;20281;-63
2022/03/24 09:53:47;;;;;;;10.93;9.83;;;;;;;;;;5064468;28;20555;-65
2022/03/24 09:56:20;;;;;;;10.90;9.80;;;;;;;;;;5083937;28;20523;-65
2022/03/24 09:58:52;;;;;;;10.83;9.57;;;;;;;;;;5033938;28;20921;-64
2022/03/24 10:01:22;;;;;;;11.47;9.43;;;;;;;;;;5062518;28;20201;-64
2022/03/24 10:04:24;;;;;;;11.53;8.90;;;;;;;;;;5066335;28;20220;-66
2022/03/24 10:07:00;;;;;;;15.43;10.47;;;;;;;;;;5031264;28;20210;-66
2022/03/24 10:09:40;;;;;;;15.40;11.03;;;;;;;;;;5044026;28;20240;-64
2022/03/24 10:12:18;;;;;;;14.87;10.97;;;;;;;;;;5066699;28;20308;-64
2022/03/24 10:15:07;;;;;;;12.00;10.70;;;;;;;;;;5048693;28;20535;-66
2022/03/24 10:18:00;;;;;;;13.63;10.40;;;;;;;;;;5047831;28;20225;-66
2022/03/24 10:20:33;;;;;;;11.13;9.90;;;;;;;;;;5054193;28;20198;-65
2022/03/24 10:23:06;;;;;;;11.40;10.20;;;;;;;;;;5062816;28;20218;-65
2022/03/24 10:25:40;;;;;;;13.13;10.57;;;;;;;;;;5080370;28;20224;-65
2022/03/24 10:28:15;;;;;;;11.53;9.83;;;;;;;;;;5046494;28;20508;-66
2022/03/24 10:30:53;;;;;;;11.57;9.57;;;;;;;;;;5035652;28;20197;-67
2022/03/24 10:33:28;;;;;;;11.17;9.00;;;;;;;;;;5043262;28;20237;-65
2022/03/24 10:36:09;;;;;;;11.27;8.90;;;;;;;;;;5056248;28;20227;-67
2022/03/24 10:38:44;;;;;;;11.20;10.10;;;;;;;;;;5064793;28;20259;-66
2022/03/24 10:41:30;;;;;;;16.70;9.43;;;;;;;;;;5059124;28;20716;-65
2022/03/24 10:44:05;;;;;;;10.50;9.50;;;;;;;;;;5066482;28;20205;-66
2022/03/24 10:46:37;;;;;;;11.37;9.57;;;;;;;;;;5076487;28;20662;-65
2022/03/24 10:52:02;;;;;;;10.60;9.30;;;;;;;;;;5106616;27;20585;-67
2022/03/24 10:54:48;;;;;;;10.63;9.63;;;;;;;;;;5093151;28;20265;-67
2022/03/24 10:57:23;;;;;;;10.03;9.10;;;;;;;;;;5075708;28;20205;-67
2022/03/24 10:59:58;;;;;;;9.70;8.70;;;;;;;;;;5064855;28;20189;-65
2022/03/24 11:02:32;;;;;;;11.27;9.30;;;;;;;;;;5063698;28;20290;-66
2022/03/24 11:05:12;;;;;;;11.27;9.30;;;;;;;;;;5062650;28;20690;-69
2022/03/24 11:07:55;;;;;;;10.90;8.17;;;;;;;;;;5061768;28;20194;-70
2022/03/24 11:10:33;;;;;;;9.47;8.27;;;;;;;;;;5058414;28;20230;-70
2022/03/24 11:13:06;;;;;;;8.37;7.57;;;;;;;;;;5084106;28;20211;-70
2022/03/24 11:15:39;;;;;;;14.80;8.67;;;;;;;;;;5070192;28;20213;-71
2022/03/24 11:18:10;;;;;;;8.50;7.70;;;;;;;;;;5063949;28;20228;-70
2022/03/24 11:20:40;;;;;;;9.17;8.27;;;;;;;;;;5062340;28;20213;-69
2022/03/24 11:23:35;;;;;;;9.70;8.70;;;;;;;;;;5062784;28;20206;-70
2022/03/24 11:26:05;;;;;;;9.13;8.33;;;;;;;;;;5062979;28;20297;-69
2022/03/24 11:28:35;;;;;;;8.70;7.90;;;;;;;;;;5047889;28;20190;-64
2022/03/24 11:31:14;;;;;;;9.73;8.83;;;;;;;;;;5063541;28;20724;-65
2022/03/24 11:33:58;;;;;;;10.83;8.40;;;;;;;;;;5061682;28;20611;-66
2022/03/24 11:36:30;;;;;;;10.57;8.47;;;;;;;;;;5062507;28;20186;-66
2022/03/24 11:38:59;;;;;;;8.57;7.43;;;;;;;;;;5066197;28;20190;-66
2022/03/24 11:41:29;;;;;;;8.93;7.90;;;;;;;;;;5075012;28;20213;-68
2022/03/24 11:44:03;;;;;;;8.53;7.73;;;;;;;;;;5063036;28;20994;-65
2022/03/24 11:46:33;;;;;;;11.63;8.17;;;;;;;;;;5060813;28;20222;-65
2022/03/24 11:49:13;;;;;;;11.73;7.90;;;;;;;;;;5060171;28;20201;-66
2022/03/24 11:51:40;;;;;;;8.60;7.70;;;;;;;;;;5069835;28;20280;-65
2022/03/24 11:54:08;;;;;;;8.17;7.37;;;;;;;;;;5064862;28;20205;-65
2022/03/24 11:56:35;;;;;;;8.30;7.47;;;;;;;;;;5063986;28;20186;-66
2022/03/24 11:59:03;;;;;;;9.60;7.80;;;;;;;;;;5060178;28;20652;-66
2022/03/24 12:01:32;;;;;;;8.10;7.30;;;;;;;;;;5060096;28;20736;-65
2022/03/24 12:04:01;;;;;;;9.40;8.13;;;;;;;;;;5049322;28;20252;-66
2022/03/24 12:06:41;;;;;;;11.20;7.60;;;;;;;;;;5053080;28;20554;-65
2022/03/24 12:09:10;;;;;;;8.60;7.70;;;;;;;;;;5049634;28;20217;-66
2022/03/24 12:11:41;;;;;;;7.27;6.57;;;;;;;;;;5046500;28;20246;-66
2022/03/24 12:14:11;;;;;;;9.27;6.83;;;;;;;;;;5048821;28;20201;-67
2022/03/24 12:16:40;;;;;;;7.63;6.93;;;;;;;;;;5047304;28;20661;-66
2022/03/24 12:19:28;;;;;;;9.33;6.80;;;;;;;;;;5064933;28;20209;-66
2022/03/24 12:21:57;;;;;;;8.43;7.70;;;;;;;;;;5046682;28;20244;-66
2022/03/24 12:24:24;;;;;;;10.00;7.60;;;;;;;;;;5046903;28;20205;-64
2022/03/24 12:26:53;;;;;;;9.30;6.97;;;;;;;;;;5046352;28;20198;-65
2022/03/24 12:29:21;;;;;;;7.60;6.73;;;;;;;;;;5049142;28;20171;-66
2022/03/24 12:31:57;;;;;;;9.73;6.60;;;;;;;;;;5048674;28;20245;-64
2022/03/24 12:34:29;;;;;;;8.67;6.33;;;;;;;;;;5049171;28;20198;-66
2022/03/24 12:36:56;;;;;;;7.53;6.53;;;;;;;;;;5044546;28;20275;-66
2022/03/24 12:39:34;;;;;;;7.60;6.90;;;;;;;;;;5048453;28;20579;-66
2022/03/24 12:42:03;;;;;;;7.30;6.53;;;;;;;;;;5061539;28;20202;-65
2022/03/24 12:44:49;;;;;;;7.37;6.03;;;;;;;;;;5047914;28;20195;-64
2022/03/24 12:47:35;;;;;;;6.67;5.77;;;;;;;;;;5045476;28;20210;-65
2022/03/24 12:50:17;;;;;;;7.93;6.10;;;;;;;;;;5033034;28;20230;-66
2022/03/24 12:53:00;;;;;;;7.47;5.73;;;;;;;;;;5047186;28;20182;-67
2022/03/24 12:55:33;;;;;;;7.57;5.70;;;;;;;;;;5029811;28;20203;-66
2022/03/24 12:58:09;;;;;;;6.93;6.10;;;;;;;;;;5047877;28;20232;-68
2022/03/24 13:00:42;;;;;;;6.80;6.17;;;;;;;;;;5044600;28;20208;-64
2022/03/24 13:03:10;;;;;;;6.20;5.53;;;;;;;;;;5053236;28;20202;-64
2022/03/24 13:05:39;;;;;;;10.50;5.97;;;;;;;;;;5048891;28;20654;-63
2022/03/24 13:08:09;;;;;;;7.97;6.00;;;;;;;;;;5049002;28;20264;-62
2022/03/24 13:10:37;;;;;;;6.33;5.73;;;;;;;;;;5049066;28;20272;-65
2022/03/24 13:13:05;;;;;;;8.60;5.60;;;;;;;;;;5044831;28;20214;-65
2022/03/24 13:15:38;;;;;;;7.13;5.60;;;;;;;;;;5048665;28;20628;-63
2022/03/24 13:18:07;;;;;;;7.90;5.97;;;;;;;;;;5049550;28;20220;-64
2022/03/24 13:20:38;;;;;;;8.90;6.10;;;;;;;;;;5048724;28;20725;-64
2022/03/24 13:23:06;;;;;;;8.90;6.10;;;;;;;;;;5046777;28;20804;-65
2022/03/24 13:25:33;;;;;;;8.63;5.87;;;;;;;;;;5046569;28;20229;-65
2022/03/24 13:28:02;;;;;;;6.90;5.87;;;;;;;;;;5048646;28;20535;-66
2022/03/24 13:30:31;;;;;;;7.80;6.40;;;;;;;;;;5056967;28;20212;-65
2022/03/24 13:33:04;;;;;;;7.03;5.60;;;;;;;;;;5038995;28;20182;-65
2022/03/24 13:35:37;;;;;;;6.53;5.83;;;;;;;;;;5048381;28;20205;-65
2022/03/24 13:38:24;;;;;;;7.93;5.70;;;;;;;;;;5044871;28;20768;-64
2022/03/24 13:41:01;;;;;;;6.73;5.80;;;;;;;;;;5047824;28;20578;-65
2022/03/24 13:43:34;;;;;;;6.77;5.70;;;;;;;;;;5048190;28;20197;-65
2022/03/24 13:46:04;;;;;;;10.17;5.60;;;;;;;;;;5048900;28;20659;-68
2022/03/24 13:48:36;;;;;;;7.70;5.10;;;;;;;;;;5048204;28;20229;-68
2022/03/24 13:51:12;;;;;;;8.60;5.20;;;;;;;;;;5045881;28;20230;-65
2022/03/24 13:53:52;;;;;;;5.80;5.30;;;;;;;;;;5045551;28;20217;-66
2022/03/24 13:56:23;;;;;;;7.20;5.23;;;;;;;;;;5047706;28;20183;-65
2022/03/24 13:59:00;;;;;;;5.97;5.37;;;;;;;;;;5046527;28;20194;-64
2022/03/24 14:01:35;;;;;;;5.53;4.90;;;;;;;;;;5060513;28;20217;-65
2022/03/24 14:04:21;;;;;;;6.37;5.10;;;;;;;;;;5053244;28;20522;-66
2022/03/24 14:07:06;;;;;;;7.97;5.50;;;;;;;;;;5048854;28;20244;-67
2022/03/24 14:09:39;;;;;;;8.67;5.47;;;;;;;;;;5048326;28;20186;-66
2022/03/24 14:12:08;;;;;;;7.23;5.90;;;;;;;;;;5048093;28;20222;-63
2022/03/24 14:14:35;;;;;;;6.13;4.90;;;;;;;;;;5044935;28;20284;-64
2022/03/24 14:17:02;;;;;;;8.77;5.97;;;;;;;;;;5052185;28;20195;-66
2022/03/24 14:19:30;;;;;;;5.20;4.77;;;;;;;;;;5049470;28;20194;-66
2022/03/24 14:21:57;;;;;;;7.73;5.47;;;;;;;;;;5051880;28;20205;-67
2022/03/24 14:24:43;;;;;;;5.70;4.77;;;;;;;;;;5050272;28;20199;-65
2022/03/24 14:27:17;;;;;;;5.57;5.00;;;;;;;;;;5051805;28;20206;-68
2022/03/24 14:30:03;;;;;;;8.20;5.30;;;;;;;;;;5054092;28;20632;-66
2022/03/24 14:32:52;;;;;;;5.97;5.33;;;;;;;;;;5030278;28;20215;-68
2022/03/24 14:35:21;;;;;;;7.07;5.10;;;;;;;;;;5030775;28;20187;-66
2022/03/24 14:37:51;;;;;;;6.20;4.70;;;;;;;;;;5047811;28;20211;-64
2022/03/24 14:40:29;;;;;;;5.57;5.07;;;;;;;;;;5049519;28;20202;-65
2022/03/24 14:43:16;;;;;;;6.73;5.10;;;;;;;;;;5044359;28;20186;-66
2022/03/24 14:45:44;;;;;;;5.40;4.90;;;;;;;;;;5043662;28;20194;-65
2022/03/24 14:48:11;;;;;;;7.40;5.00;;;;;;;;;;5044355;28;20206;-66
2022/03/24 14:50:39;;;;;;;5.37;4.57;;;;;;;;;;5043273;28;20234;-65
2022/03/24 14:53:09;;;;;;;4.97;4.50;;;;;;;;;;5044688;28;20190;-67
2022/03/24 14:55:39;;;;;;;4.87;4.37;;;;;;;;;;5045430;28;20202;-65
2022/03/24 14:58:06;;;;;;;5.20;4.70;;;;;;;;;;5044146;28;20198;-65
2022/03/24 15:00:33;;;;;;;4.97;4.47;;;;;;;;;;5046598;28;20198;-64